Time;durP1;ratioP1;P1;durP2;ratioP2;P2;SDS_P1;SDS_P2;PMS_P1;PMS_P2;Temp;Humidity;BMP_temperature;BMP_pressure;BME280_temperature;BME280_humidity;BME280_pressure;Samples;Min_cycle;Max_cycle;Signal;HPM_P1;HPM_P2
2023/10/15 00:01:32;;;;;;;8.65;2.50;;;16.40;89.20;;;;;;5065387;28;20029;-53
2023/10/15 00:03:58;;;;;;;10.18;3.30;;;16.30;89.20;;;;;;5083210;28;20127;-53
2023/10/15 00:06:24;;;;;;;12.48;2.70;;;16.30;89.20;;;;;;5068036;28;20082;-53
2023/10/15 00:08:50;;;;;;;9.25;2.75;;;16.30;89.30;;;;;;5083408;28;20060;-54
2023/10/15 00:11:18;;;;;;;8.70;2.80;;;16.30;89.30;;;;;;5066352;28;20116;-53
2023/10/15 00:13:44;;;;;;;10.98;3.03;;;16.30;89.30;;;;;;5082943;28;20393;-53
2023/10/15 00:16:19;;;;;;;4.60;2.50;;;16.30;89.40;;;;;;5083528;28;20067;-53
2023/10/15 00:18:44;;;;;;;9.88;2.63;;;16.30;89.40;;;;;;5068378;28;20419;-53
2023/10/15 00:21:13;;;;;;;6.13;2.13;;;16.30;89.50;;;;;;5083727;28;20040;-53
2023/10/15 00:23:43;;;;;;;10.15;2.85;;;16.30;90.10;;;;;;5067693;28;20056;-54
2023/10/15 00:26:11;;;;;;;8.15;2.50;;;16.30;89.60;;;;;;5066429;28;20117;-53
2023/10/15 00:28:37;;;;;;;7.65;2.67;;;16.30;89.60;;;;;;5066512;28;20044;-53
2023/10/15 00:31:09;;;;;;;6.20;2.72;;;16.30;89.60;;;;;;5082841;28;20052;-53
2023/10/15 00:33:35;;;;;;;7.07;2.38;;;16.20;89.50;;;;;;5067553;28;20050;-53
2023/10/15 00:36:01;;;;;;;9.15;2.85;;;16.20;89.50;;;;;;5066230;28;20406;-53
2023/10/15 00:38:29;;;;;;;6.82;2.45;;;16.20;89.60;;;;;;5067570;28;20033;-53
2023/10/15 00:41:06;;;;;;;9.35;2.63;;;16.20;89.80;;;;;;5067908;28;20029;-53
2023/10/15 00:43:32;;;;;;;6.85;2.45;;;16.20;89.90;;;;;;5083234;28;20493;-53
2023/10/15 00:45:59;;;;;;;7.47;2.50;;;16.20;89.90;;;;;;5070031;28;20037;-53
2023/10/15 00:48:27;;;;;;;5.65;2.13;;;16.20;89.90;;;;;;5067544;28;20029;-54
2023/10/15 00:50:53;;;;;;;4.70;2.35;;;16.20;90.00;;;;;;5065941;28;20039;-53
2023/10/15 00:53:24;;;;;;;6.35;2.00;;;16.20;90.00;;;;;;5066099;28;20088;-53
2023/10/15 00:56:04;;;;;;;7.43;2.78;;;16.10;90.00;;;;;;5065758;28;20477;-53
2023/10/15 00:58:38;;;;;;;6.75;2.42;;;16.10;90.00;;;;;;5081306;28;20044;-53
2023/10/15 01:03:49;;;;;;;5.97;2.10;;;16.10;90.00;;;;;;5065833;28;20023;-53
2023/10/15 01:06:18;;;;;;;7.80;2.25;;;16.10;90.00;;;;;;5064772;28;20025;-53
2023/10/15 01:08:46;;;;;;;3.42;1.95;;;16.10;90.00;;;;;;5081668;28;20029;-53
2023/10/15 01:11:14;;;;;;;4.85;2.08;;;16.10;90.10;;;;;;5082019;28;20044;-53
2023/10/15 01:13:40;;;;;;;6.65;2.35;;;16.10;90.10;;;;;;5064469;28;20032;-54
2023/10/15 01:16:08;;;;;;;7.35;2.47;;;16.10;90.10;;;;;;5066827;28;20037;-53
2023/10/15 01:18:37;;;;;;;4.72;2.08;;;16.00;90.10;;;;;;5081987;28;20492;-53
2023/10/15 01:21:04;;;;;;;6.95;2.17;;;16.00;90.00;;;;;;5081484;28;20477;-53
2023/10/15 01:26:23;;;;;;;4.60;2.15;;;16.00;90.10;;;;;;5066609;28;20040;-53
2023/10/15 01:28:51;;;;;;;5.93;2.33;;;16.00;90.10;;;;;;5080021;28;20025;-53
2023/10/15 01:31:17;;;;;;;6.38;2.15;;;16.00;90.20;;;;;;5066450;28;20459;-53
2023/10/15 01:33:50;;;;;;;4.75;2.20;;;16.00;90.20;;;;;;5065084;28;20025;-53
2023/10/15 01:36:21;;;;;;;5.63;1.85;;;16.10;90.30;;;;;;5066322;28;20033;-53
2023/10/15 01:38:50;;;;;;;4.95;2.25;;;16.00;90.30;;;;;;5066204;28;20029;-53
2023/10/15 01:41:19;;;;;;;7.75;2.05;;;15.90;90.20;;;;;;5064229;28;20097;-54
2023/10/15 01:43:49;;;;;;;4.32;1.98;;;15.90;90.30;;;;;;5081249;28;20029;-53
2023/10/15 01:46:39;;;;;;;4.25;1.55;;;15.90;90.30;;;;;;5081114;28;20092;-53
2023/10/15 01:49:06;;;;;;;4.43;1.80;;;15.90;90.30;;;;;;5064877;28;20025;-54
2023/10/15 01:51:39;;;;;;;4.18;1.98;;;15.90;90.30;;;;;;5080990;28;20033;-53
2023/10/15 01:54:10;;;;;;;4.93;1.90;;;16.00;90.40;;;;;;5064901;28;20033;-54
2023/10/15 01:56:44;;;;;;;5.95;1.98;;;15.90;90.30;;;;;;5081086;28;20035;-53
2023/10/15 01:59:11;;;;;;;5.50;2.17;;;15.90;90.60;;;;;;5081231;28;20538;-54
2023/10/15 02:01:49;;;;;;;4.90;2.00;;;15.90;90.40;;;;;;5081487;28;20043;-54
2023/10/15 02:04:27;;;;;;;5.85;2.15;;;15.90;90.40;;;;;;5080146;28;20031;-53
2023/10/15 02:06:53;;;;;;;2.88;1.70;;;15.90;90.50;;;;;;5064786;28;20057;-53
2023/10/15 02:09:22;;;;;;;6.72;1.95;;;15.90;90.50;;;;;;5064514;28;20021;-53
2023/10/15 02:11:48;;;;;;;5.45;1.80;;;15.90;90.50;;;;;;5064350;28;20056;-54
2023/10/15 02:14:23;;;;;;;5.10;1.80;;;15.90;90.50;;;;;;5081507;28;20021;-53
2023/10/15 02:16:50;;;;;;;4.38;1.75;;;15.80;90.50;;;;;;5064643;28;20028;-53
2023/10/15 02:19:28;;;;;;;5.55;1.70;;;15.80;90.50;;;;;;5065947;28;20079;-53
2023/10/15 02:21:54;;;;;;;3.22;1.63;;;15.80;90.50;;;;;;5079745;28;20041;-53
2023/10/15 02:24:20;;;;;;;2.63;1.55;;;15.80;90.50;;;;;;5081224;28;20063;-53
2023/10/15 02:26:45;;;;;;;5.97;1.80;;;15.80;90.50;;;;;;5069259;28;20504;-53
2023/10/15 02:29:35;;;;;;;3.22;1.50;;;15.80;90.60;;;;;;5069937;28;20029;-54
2023/10/15 02:34:45;;;;;;;3.60;1.70;;;15.80;90.60;;;;;;5082857;28;20094;-54
2023/10/15 02:37:13;;;;;;;2.95;1.42;;;15.70;90.60;;;;;;5069652;28;20029;-53
2023/10/15 02:39:43;;;;;;;3.58;1.67;;;15.80;90.60;;;;;;5068186;28;20388;-53
2023/10/15 02:42:09;;;;;;;3.25;1.55;;;15.70;90.60;;;;;;5069639;28;20088;-53
2023/10/15 02:44:38;;;;;;;4.70;1.42;;;15.70;90.60;;;;;;5068255;28;20087;-53
2023/10/15 02:49:59;;;;;;;2.38;1.38;;;15.70;90.60;;;;;;5082505;28;20061;-53
2023/10/15 02:52:26;;;;;;;6.85;1.70;;;15.70;90.60;;;;;;5083757;28;20041;-53
2023/10/15 02:54:52;;;;;;;7.68;1.80;;;15.70;90.70;;;;;;5084599;28;20033;-53
2023/10/15 02:57:18;;;;;;;4.15;1.70;;;15.70;90.70;;;;;;5069341;28;20537;-53
2023/10/15 02:59:52;;;;;;;4.78;1.73;;;15.60;90.70;;;;;;5084735;28;20114;-53
2023/10/15 03:02:19;;;;;;;2.07;1.27;;;15.70;90.70;;;;;;5068036;28;20205;-53
2023/10/15 03:04:50;;;;;;;4.00;1.50;;;15.60;90.60;;;;;;5067731;28;20484;-53
2023/10/15 03:10:21;;;;;;;2.85;1.63;;;15.60;90.70;;;;;;5051571;28;20511;-53
2023/10/15 03:12:47;;;;;;;4.13;1.55;;;15.60;90.60;;;;;;5083660;28;20389;-53
2023/10/15 03:15:14;;;;;;;3.83;1.30;;;15.60;90.70;;;;;;5067658;28;20032;-53
2023/10/15 03:17:43;;;;;;;2.45;1.30;;;15.50;90.60;;;;;;5068988;28;20480;-53
2023/10/15 03:22:51;;;;;;;2.40;1.33;;;15.50;90.60;;;;;;5083044;28;20052;-53
2023/10/15 03:25:17;;;;;;;2.72;1.38;;;15.60;90.60;;;;;;5068976;28;20457;-54
2023/10/15 03:27:46;;;;;;;4.20;1.50;;;15.60;90.60;;;;;;5083913;28;20040;-53
2023/10/15 03:30:13;;;;;;;3.97;1.63;;;15.50;90.60;;;;;;5084024;28;20025;-53
2023/10/15 03:32:44;;;;;;;4.15;1.75;;;15.60;90.50;;;;;;5084031;28;20148;-53
2023/10/15 03:35:27;;;;;;;3.88;1.65;;;15.50;90.50;;;;;;5083857;28;20059;-53
2023/10/15 03:37:59;;;;;;;4.65;1.50;;;15.50;90.50;;;;;;5066770;28;20512;-53
2023/10/15 03:40:32;;;;;;;9.20;1.40;;;15.50;90.50;;;;;;5068757;28;20063;-53
2023/10/15 03:43:06;;;;;;;5.93;1.33;;;15.50;90.50;;;;;;5082909;28;20513;-53
2023/10/15 03:45:50;;;;;;;3.30;1.50;;;15.50;90.50;;;;;;5067278;28;20025;-53
2023/10/15 03:48:27;;;;;;;3.50;1.38;;;15.50;90.50;;;;;;5082032;28;20033;-53
2023/10/15 03:50:55;;;;;;;5.22;1.42;;;15.40;90.40;;;;;;5083139;28;20040;-53
2023/10/15 03:53:27;;;;;;;6.13;1.77;;;15.40;90.40;;;;;;5083475;28;20501;-54
2023/10/15 03:55:57;;;;;;;3.33;1.40;;;15.40;90.40;;;;;;5066975;28;20036;-53
2023/10/15 03:58:24;;;;;;;2.60;1.27;;;15.40;90.30;;;;;;5083510;28;20028;-53
2023/10/15 04:00:56;;;;;;;5.30;1.63;;;15.40;90.30;;;;;;5050023;28;20111;-53
2023/10/15 04:03:35;;;;;;;2.58;1.30;;;15.40;90.20;;;;;;5067191;28;20074;-53
2023/10/15 04:06:01;;;;;;;4.18;1.58;;;15.40;90.20;;;;;;5068306;28;20032;-53
2023/10/15 04:08:31;;;;;;;3.70;1.23;;;15.40;90.20;;;;;;5068009;28;20029;-53
2023/10/15 04:10:57;;;;;;;3.78;1.60;;;15.40;90.20;;;;;;5083304;28;20057;-53
2023/10/15 04:13:22;;;;;;;4.53;1.67;;;15.40;90.20;;;;;;5083577;28;20029;-53
2023/10/15 04:15:49;;;;;;;2.42;1.30;;;15.40;90.20;;;;;;5083297;28;20047;-53
2023/10/15 04:18:14;;;;;;;2.08;1.30;;;15.40;90.20;;;;;;5083330;28;20025;-53
2023/10/15 04:20:42;;;;;;;6.30;1.70;;;15.30;90.20;;;;;;5066501;28;20028;-53
2023/10/15 04:23:13;;;;;;;4.68;1.60;;;15.30;90.20;;;;;;5082824;28;20507;-53
2023/10/15 04:25:39;;;;;;;3.63;1.40;;;15.40;90.10;;;;;;5067573;28;20029;-53
2023/10/15 04:28:14;;;;;;;2.63;1.30;;;15.30;90.10;;;;;;5083093;28;20055;-53
2023/10/15 04:30:40;;;;;;;4.10;1.38;;;15.30;90.10;;;;;;5067812;28;20492;-53
2023/10/15 04:33:13;;;;;;;3.78;1.17;;;15.30;90.10;;;;;;5082859;28;20485;-54
2023/10/15 04:35:40;;;;;;;2.15;1.20;;;15.30;90.00;;;;;;5067653;28;20048;-53
2023/10/15 04:38:07;;;;;;;3.92;1.40;;;15.30;90.00;;;;;;5082966;28;20226;-53
2023/10/15 04:40:47;;;;;;;1.92;1.20;;;15.30;90.00;;;;;;5082882;28;20071;-53
2023/10/15 04:43:13;;;;;;;3.35;1.10;;;15.20;90.00;;;;;;5081139;28;20033;-53
2023/10/15 04:45:42;;;;;;;5.15;1.52;;;15.30;90.30;;;;;;5082686;28;20036;-53
2023/10/15 04:48:16;;;;;;;3.38;1.23;;;15.30;90.00;;;;;;5098554;28;20052;-53
2023/10/15 04:50:45;;;;;;;4.68;1.67;;;15.20;90.00;;;;;;5064620;28;20072;-53
2023/10/15 04:53:23;;;;;;;3.20;1.30;;;15.20;90.00;;;;;;5065754;28;20029;-53
2023/10/15 04:55:49;;;;;;;4.40;1.48;;;15.20;90.00;;;;;;5081249;28;20043;-53
2023/10/15 04:58:15;;;;;;;3.22;1.13;;;15.20;90.00;;;;;;5082341;28;20025;-54
2023/10/15 05:00:44;;;;;;;3.00;1.38;;;15.20;90.00;;;;;;5082349;28;20025;-53
2023/10/15 05:03:10;;;;;;;4.43;1.40;;;15.20;90.00;;;;;;5049043;28;20064;-53
2023/10/15 05:05:36;;;;;;;3.15;1.10;;;15.20;90.00;;;;;;5065489;28;20079;-54
2023/10/15 05:08:02;;;;;;;2.75;1.30;;;15.10;90.00;;;;;;5082319;28;20025;-53
2023/10/15 05:10:32;;;;;;;2.67;1.08;;;15.10;90.00;;;;;;5048948;28;20029;-53
2023/10/15 05:12:59;;;;;;;3.58;1.50;;;15.10;90.10;;;;;;5065043;28;20025;-53
2023/10/15 05:15:25;;;;;;;3.53;1.50;;;15.10;90.10;;;;;;5065501;28;20025;-53
2023/10/15 05:17:50;;;;;;;2.25;1.27;;;15.10;90.10;;;;;;5066737;28;20063;-53
2023/10/15 05:20:16;;;;;;;4.00;1.15;;;15.10;90.00;;;;;;5066975;28;20032;-53
2023/10/15 05:22:42;;;;;;;2.17;0.95;;;15.10;90.00;;;;;;5065378;28;20029;-53
2023/10/15 05:25:17;;;;;;;2.72;1.20;;;15.10;90.10;;;;;;5065345;28;20021;-54
2023/10/15 05:27:43;;;;;;;3.25;1.30;;;15.00;90.10;;;;;;5066743;28;20048;-54
2023/10/15 05:30:10;;;;;;;1.90;1.08;;;15.10;90.10;;;;;;5082590;28;20025;-53
2023/10/15 05:32:36;;;;;;;2.47;1.20;;;15.00;90.10;;;;;;5066374;28;20055;-53
2023/10/15 05:35:02;;;;;;;3.28;1.30;;;15.00;90.10;;;;;;5048406;28;20028;-54
2023/10/15 05:37:28;;;;;;;2.72;1.27;;;15.00;90.10;;;;;;5081816;28;20155;-54
2023/10/15 05:39:53;;;;;;;8.23;1.55;;;15.00;90.10;;;;;;5066343;28;20028;-54
2023/10/15 05:42:19;;;;;;;4.80;1.67;;;15.00;90.30;;;;;;5066241;28;20048;-53
2023/10/15 05:44:45;;;;;;;5.18;1.60;;;15.00;90.10;;;;;;5081662;28;20029;-53
2023/10/15 05:47:10;;;;;;;5.78;1.58;;;15.00;90.10;;;;;;5081752;28;20075;-54
2023/10/15 05:49:37;;;;;;;4.93;1.48;;;15.00;90.10;;;;;;5066265;28;20025;-53
2023/10/15 05:52:03;;;;;;;6.03;1.75;;;15.00;90.20;;;;;;5064781;28;20608;-53
2023/10/15 05:54:31;;;;;;;5.15;1.23;;;15.00;90.20;;;;;;5066078;28;20033;-53
2023/10/15 05:56:57;;;;;;;6.60;1.13;;;14.90;90.20;;;;;;5064665;28;20055;-54
2023/10/15 05:59:23;;;;;;;2.88;1.35;;;15.00;90.20;;;;;;5065987;28;20024;-54
2023/10/15 06:01:50;;;;;;;5.18;1.70;;;15.00;90.20;;;;;;5047991;28;20078;-53
2023/10/15 06:04:17;;;;;;;4.63;1.70;;;15.00;90.20;;;;;;5081210;28;20029;-53
2023/10/15 06:06:43;;;;;;;3.60;1.48;;;15.00;90.20;;;;;;5081516;28;20021;-53
2023/10/15 06:09:11;;;;;;;7.70;1.80;;;15.00;90.20;;;;;;5065963;28;20025;-53
2023/10/15 06:11:37;;;;;;;7.10;1.67;;;15.00;90.20;;;;;;5081199;28;20059;-53
2023/10/15 06:14:04;;;;;;;3.35;1.40;;;14.90;90.20;;;;;;5065730;28;20417;-53
2023/10/15 06:16:30;;;;;;;4.38;1.42;;;14.90;90.20;;;;;;5065921;28;20029;-54
2023/10/15 06:18:55;;;;;;;3.80;1.40;;;14.90;90.20;;;;;;5081119;28;20032;-53
2023/10/15 06:21:21;;;;;;;4.65;1.40;;;14.90;90.20;;;;;;5081235;28;20025;-53
2023/10/15 06:23:46;;;;;;;5.88;1.50;;;14.90;90.30;;;;;;5065755;28;20087;-54
2023/10/15 06:26:13;;;;;;;4.30;1.23;;;15.00;90.30;;;;;;5081470;28;20077;-53
2023/10/15 06:28:38;;;;;;;5.65;1.60;;;14.90;90.30;;;;;;5065660;28;20036;-54
2023/10/15 06:31:04;;;;;;;3.03;1.30;;;14.90;90.20;;;;;;5065641;28;20037;-54
2023/10/15 06:33:30;;;;;;;6.40;1.65;;;14.90;90.30;;;;;;5064975;28;20028;-53
2023/10/15 06:35:57;;;;;;;6.13;1.80;;;14.90;90.30;;;;;;5064507;28;20040;-52
2023/10/15 06:38:25;;;;;;;2.47;1.10;;;14.90;90.30;;;;;;5065609;28;20392;-53
2023/10/15 06:40:51;;;;;;;5.50;1.52;;;14.90;90.40;;;;;;5065850;28;20044;-54
2023/10/15 06:43:17;;;;;;;4.28;1.20;;;14.80;90.30;;;;;;5080985;28;20072;-54
2023/10/15 06:45:43;;;;;;;4.35;1.48;;;14.80;90.30;;;;;;5065804;28;20021;-53
2023/10/15 06:48:09;;;;;;;4.82;1.30;;;14.90;90.40;;;;;;5081109;28;20025;-53
2023/10/15 06:50:34;;;;;;;4.88;1.38;;;14.90;90.40;;;;;;5080882;28;20041;-54
2023/10/15 06:53:05;;;;;;;3.88;1.52;;;14.90;90.30;;;;;;5080885;28;20033;-53
2023/10/15 06:55:31;;;;;;;5.22;1.38;;;14.90;90.30;;;;;;5065558;28;20029;-53
2023/10/15 06:57:56;;;;;;;3.30;1.38;;;14.90;90.30;;;;;;5065581;28;20056;-53
2023/10/15 07:00:22;;;;;;;1.90;1.20;;;14.90;90.30;;;;;;5064104;28;20545;-53
2023/10/15 07:02:49;;;;;;;3.88;1.10;;;14.90;90.30;;;;;;5080959;28;20059;-54
2023/10/15 07:05:16;;;;;;;4.03;1.23;;;14.90;90.30;;;;;;5064039;28;20044;-54
2023/10/15 07:07:41;;;;;;;4.10;1.63;;;14.90;90.30;;;;;;5080904;28;20037;-54
2023/10/15 07:10:07;;;;;;;3.55;1.35;;;14.90;90.30;;;;;;5064115;28;20440;-53
2023/10/15 07:12:34;;;;;;;6.47;1.50;;;14.90;90.60;;;;;;5068367;28;20040;-54
2023/10/15 07:14:59;;;;;;;5.32;1.17;;;14.90;90.30;;;;;;5051121;28;20056;-53
2023/10/15 07:17:25;;;;;;;4.13;1.45;;;14.90;90.30;;;;;;5051079;28;20037;-53
2023/10/15 07:19:51;;;;;;;3.00;1.27;;;14.90;90.30;;;;;;5067751;28;20418;-53
2023/10/15 07:22:16;;;;;;;4.55;1.60;;;14.90;90.30;;;;;;5068810;28;20550;-53
2023/10/15 07:24:42;;;;;;;7.00;1.48;;;14.90;90.40;;;;;;5067586;28;20044;-53
2023/10/15 07:27:08;;;;;;;3.63;1.45;;;14.90;90.40;;;;;;5068600;28;20096;-53
2023/10/15 07:29:34;;;;;;;7.47;1.30;;;14.90;90.40;;;;;;5084425;28;20038;-53
2023/10/15 07:31:59;;;;;;;5.22;1.40;;;14.90;90.40;;;;;;5068753;28;20370;-54
2023/10/15 07:34:26;;;;;;;5.03;1.40;;;14.90;90.40;;;;;;5068720;28;20029;-53
2023/10/15 07:36:55;;;;;;;5.38;1.70;;;14.90;90.40;;;;;;5083959;28;20552;-54
2023/10/15 07:39:22;;;;;;;3.10;1.30;;;14.80;90.40;;;;;;5084002;28;20029;-53
2023/10/15 07:41:50;;;;;;;2.50;1.27;;;14.90;90.40;;;;;;5068462;28;20056;-53
2023/10/15 07:44:17;;;;;;;5.18;1.25;;;14.80;90.40;;;;;;5083708;28;20051;-54
2023/10/15 07:46:43;;;;;;;2.80;1.45;;;14.90;90.40;;;;;;5068500;28;20473;-54
2023/10/15 07:49:12;;;;;;;4.70;1.50;;;14.90;90.30;;;;;;5050274;28;20051;-53
2023/10/15 07:51:38;;;;;;;2.50;1.20;;;14.90;90.30;;;;;;5065269;28;20060;-53
2023/10/15 07:54:03;;;;;;;2.33;1.20;;;14.90;90.30;;;;;;5095590;28;20032;-53
2023/10/15 07:56:31;;;;;;;3.78;1.55;;;14.90;90.30;;;;;;5068364;28;20054;-53
2023/10/15 07:58:57;;;;;;;3.50;1.30;;;14.90;90.30;;;;;;5066777;28;20045;-54
2023/10/15 08:01:25;;;;;;;3.80;1.35;;;14.90;90.30;;;;;;5059287;28;20057;-54
2023/10/15 08:03:51;;;;;;;5.43;1.65;;;14.90;90.30;;;;;;5062826;28;20021;-57
2023/10/15 08:06:16;;;;;;;4.47;1.50;;;14.90;90.30;;;;;;5065143;28;20087;-57
2023/10/15 08:08:43;;;;;;;3.47;1.40;;;14.90;90.40;;;;;;5064239;28;20029;-57
2023/10/15 08:11:08;;;;;;;4.00;1.30;;;14.80;90.40;;;;;;5046548;28;20041;-57
2023/10/15 08:13:34;;;;;;;6.75;1.80;;;14.80;90.40;;;;;;5061872;28;20055;-57
2023/10/15 08:15:59;;;;;;;5.22;1.58;;;14.80;90.50;;;;;;5067612;28;20144;-57
2023/10/15 08:18:25;;;;;;;5.63;1.30;;;14.80;90.50;;;;;;5016056;28;20495;-57
2023/10/15 08:20:50;;;;;;;5.43;1.40;;;14.80;90.60;;;;;;5070097;28;20025;-57
2023/10/15 08:23:16;;;;;;;5.07;1.50;;;14.80;90.50;;;;;;5064721;28;20036;-57
2023/10/15 08:25:41;;;;;;;13.20;1.80;;;14.80;90.50;;;;;;5066145;28;20025;-57
2023/10/15 08:28:07;;;;;;;16.60;2.00;;;14.80;90.50;;;;;;5055321;28;20032;-58
2023/10/15 08:30:33;;;;;;;22.50;2.58;;;14.80;90.50;;;;;;5049736;28;20029;-57
2023/10/15 08:32:58;;;;;;;11.18;2.65;;;14.80;90.50;;;;;;5067347;28;20029;-58
2023/10/15 08:35:24;;;;;;;11.23;2.47;;;14.80;90.50;;;;;;5060893;28;20036;-57
2023/10/15 08:37:49;;;;;;;25.35;4.43;;;14.80;90.50;;;;;;5064073;28;20120;-57
2023/10/15 08:40:18;;;;;;;20.75;4.18;;;14.90;90.60;;;;;;5081815;28;20036;-57
2023/10/15 08:42:46;;;;;;;22.00;4.20;;;14.90;90.60;;;;;;5079762;28;20037;-57
2023/10/15 08:45:12;;;;;;;21.05;4.50;;;14.90;90.60;;;;;;5066657;28;20029;-57
2023/10/15 08:47:37;;;;;;;25.27;4.72;;;14.90;90.60;;;;;;5065870;28;20049;-53
2023/10/15 08:50:03;;;;;;;25.88;5.07;;;14.90;90.60;;;;;;5065783;28;20024;-53
2023/10/15 08:52:30;;;;;;;32.80;5.53;;;14.90;90.60;;;;;;5075758;28;20515;-54
2023/10/15 08:54:56;;;;;;;38.30;5.50;;;14.90;90.60;;;;;;5064750;28;20554;-53
2023/10/15 08:57:21;;;;;;;39.63;5.88;;;15.00;90.60;;;;;;5064747;28;20049;-54
2023/10/15 08:59:47;;;;;;;62.20;7.95;;;15.00;90.60;;;;;;5065544;28;20032;-53
2023/10/15 09:02:15;;;;;;;39.95;6.65;;;15.20;90.70;;;;;;5080650;28;20036;-53
2023/10/15 09:04:40;;;;;;;36.28;6.70;;;15.10;90.60;;;;;;5055856;28;20033;-53
2023/10/15 09:07:06;;;;;;;43.78;7.30;;;15.00;90.60;;;;;;5074115;28;20675;-53
2023/10/15 09:09:32;;;;;;;39.30;6.82;;;15.10;90.70;;;;;;5046015;28;20052;-54
2023/10/15 09:11:58;;;;;;;44.97;7.53;;;15.10;90.60;;;;;;5065395;28;20029;-53
2023/10/15 09:14:40;;;;;;;46.13;7.35;;;15.10;90.60;;;;;;5040932;28;20083;-53
2023/10/15 09:17:09;;;;;;;36.00;7.50;;;15.10;90.60;;;;;;5043099;28;20090;-53
2023/10/15 09:19:39;;;;;;;51.83;7.80;;;15.10;90.70;;;;;;5048140;28;20025;-54
2023/10/15 09:22:08;;;;;;;71.93;9.35;;;15.10;90.60;;;;;;5064964;28;20044;-53
2023/10/15 09:24:36;;;;;;;46.35;6.95;;;15.10;90.50;;;;;;5031156;28;20036;-54
2023/10/15 09:27:01;;;;;;;69.30;10.13;;;15.10;90.50;;;;;;5048703;28;20033;-54
2023/10/15 09:29:30;;;;;;;80.28;11.05;;;15.10;90.40;;;;;;5064955;28;20031;-53
2023/10/15 09:31:56;;;;;;;68.45;10.52;;;15.20;90.40;;;;;;5065580;28;20033;-53
2023/10/15 09:34:23;;;;;;;64.55;11.40;;;15.20;90.40;;;;;;5064942;28;20069;-53
2023/10/15 09:36:49;;;;;;;97.15;12.60;;;15.20;90.30;;;;;;5064653;28;20029;-54
2023/10/15 09:39:15;;;;;;;104.43;14.20;;;15.20;90.40;;;;;;5066171;28;20025;-53
2023/10/15 09:41:43;;;;;;;101.60;13.77;;;15.20;90.30;;;;;;5095619;28;20157;-53
2023/10/15 09:44:14;;;;;;;94.80;12.65;;;15.20;90.30;;;;;;5063121;28;20029;-53
2023/10/15 09:46:43;;;;;;;91.00;11.95;;;15.30;90.30;;;;;;5075100;28;20044;-53
2023/10/15 09:49:12;;;;;;;77.15;11.55;;;15.20;90.20;;;;;;5034801;28;20029;-52
2023/10/15 09:51:38;;;;;;;99.72;13.63;;;15.30;90.20;;;;;;5030532;28;20055;-53
2023/10/15 09:54:05;;;;;;;88.85;13.77;;;15.30;90.10;;;;;;5030611;28;20098;-53
2023/10/15 09:56:33;;;;;;;107.03;14.63;;;15.30;90.10;;;;;;5075899;28;20045;-53
2023/10/15 09:59:02;;;;;;;100.43;13.95;;;15.30;90.00;;;;;;5047781;28;20032;-53
2023/10/15 10:01:28;;;;;;;116.25;17.02;;;15.30;90.00;;;;;;5063705;28;20088;-54
2023/10/15 10:04:40;;;;;;;83.32;13.77;;;15.40;90.10;;;;;;5030657;28;20044;-53
2023/10/15 10:07:12;;;;;;;111.30;14.65;;;15.30;90.10;;;;;;5057709;28;20494;-53
2023/10/15 10:10:09;;;;;;;91.70;14.20;;;15.40;90.10;;;;;;5076879;28;20033;-54
2023/10/15 10:12:54;;;;;;;;;;;15.40;90.00;;;;;;5038947;28;20037;-53
2023/10/15 10:15:25;;;;;;;133.95;17.58;;;15.40;89.90;;;;;;5044761;28;19920;-54
2023/10/15 10:17:51;;;;;;;145.63;17.25;;;15.50;89.80;;;;;;5049916;28;20056;-53
2023/10/15 10:20:19;;;;;;;130.55;18.77;;;15.50;89.80;;;;;;5060105;28;20029;-53
2023/10/15 10:23:07;;;;;;;130.35;16.73;;;15.50;89.90;;;;;;5079363;28;20032;-53
2023/10/15 10:25:42;;;;;;;132.63;17.20;;;15.50;90.00;;;;;;5077911;28;20103;-53
2023/10/15 10:28:19;;;;;;;175.02;21.73;;;15.60;90.20;;;;;;5077456;28;20037;-53
2023/10/15 10:31:00;;;;;;;155.50;19.20;;;15.50;89.80;;;;;;5080727;28;20540;-53
2023/10/15 10:33:44;;;;;;;125.63;17.83;;;15.60;90.00;;;;;;5063493;28;20126;-54
2023/10/15 10:36:17;;;;;;;156.30;19.85;;;15.60;90.00;;;;;;5063413;28;20029;-53
2023/10/15 10:38:43;;;;;;;133.07;18.73;;;15.60;89.60;;;;;;5030380;28;20017;-54
2023/10/15 10:41:14;;;;;;;161.45;19.92;;;15.60;89.20;;;;;;5062975;28;20033;-53
2023/10/15 10:43:43;;;;;;;134.90;19.05;;;15.60;89.20;;;;;;5033145;28;20032;-53
2023/10/15 10:46:22;;;;;;;103.32;17.25;;;15.70;89.30;;;;;;5045223;28;20075;-53
2023/10/15 10:49:09;;;;;;;172.02;21.42;;;15.70;88.60;;;;;;5063262;28;20017;-54
2023/10/15 10:51:35;;;;;;;132.32;18.65;;;15.70;88.50;;;;;;5066761;28;20116;-53
2023/10/15 10:54:03;;;;;;;115.63;17.90;;;15.70;88.60;;;;;;5053988;28;20031;-53
2023/10/15 10:56:40;;;;;;;127.13;18.52;;;15.70;88.10;;;;;;5066861;28;20076;-53
2023/10/15 10:59:15;;;;;;;152.38;19.55;;;15.90;88.40;;;;;;5061581;28;20033;-53
2023/10/15 11:01:42;;;;;;;152.67;20.30;;;15.80;88.40;;;;;;5048617;28;20052;-53
2023/10/15 11:04:08;;;;;;;140.57;19.15;;;15.80;88.10;;;;;;5033293;28;20041;-53
2023/10/15 11:06:34;;;;;;;142.70;18.95;;;15.80;88.30;;;;;;5068470;28;20025;-53
2023/10/15 11:09:02;;;;;;;135.45;18.73;;;15.80;88.10;;;;;;5040634;28;20040;-53
2023/10/15 11:11:28;;;;;;;131.15;19.10;;;15.80;88.20;;;;;;5049711;28;20036;-53
2023/10/15 11:13:57;;;;;;;186.50;22.40;;;15.80;88.10;;;;;;5079219;28;20084;-54
2023/10/15 11:16:22;;;;;;;118.53;17.83;;;15.80;88.70;;;;;;5032345;28;20037;-54
2023/10/15 11:18:49;;;;;;;130.68;16.38;;;15.90;87.90;;;;;;5067299;28;20024;-53
2023/10/15 11:21:17;;;;;;;131.40;17.45;;;15.90;87.70;;;;;;5035662;28;20405;-53
2023/10/15 11:23:42;;;;;;;139.88;18.83;;;15.90;87.60;;;;;;5045059;28;20265;-53
2023/10/15 11:26:08;;;;;;;143.55;19.15;;;15.90;87.40;;;;;;5035964;28;20053;-53
2023/10/15 11:28:34;;;;;;;158.60;20.02;;;16.00;87.40;;;;;;5054521;28;20021;-53
2023/10/15 11:31:01;;;;;;;178.05;21.02;;;16.00;87.60;;;;;;5048059;28;20368;-53
2023/10/15 11:33:28;;;;;;;166.75;20.80;;;16.00;87.60;;;;;;5047791;28;20531;-53
2023/10/15 11:35:55;;;;;;;152.88;19.85;;;16.00;87.60;;;;;;5066786;28;20155;-53
2023/10/15 11:38:20;;;;;;;173.95;21.92;;;16.00;87.40;;;;;;5063839;28;20104;-53
2023/10/15 11:40:46;;;;;;;186.48;20.65;;;16.10;87.30;;;;;;5061920;28;20055;-53
2023/10/15 11:43:18;;;;;;;184.95;23.08;;;16.10;87.10;;;;;;5052075;28;20063;-53
2023/10/15 11:45:45;;;;;;;184.43;24.02;;;16.10;86.60;;;;;;5064412;28;20021;-53
2023/10/15 11:48:13;;;;;;;220.13;25.10;;;16.10;86.00;;;;;;5043679;28;20025;-53
2023/10/15 11:50:44;;;;;;;219.73;27.17;;;16.10;85.70;;;;;;5068360;28;20017;-53
2023/10/15 11:53:16;;;;;;;265.08;32.20;;;16.20;85.80;;;;;;5051913;28;20029;-53
2023/10/15 11:55:47;;;;;;;193.57;24.55;;;16.20;85.60;;;;;;5046098;28;20025;-54
2023/10/15 11:58:16;;;;;;;214.05;24.75;;;16.20;86.00;;;;;;5046876;28;20113;-53
2023/10/15 12:00:42;;;;;;;285.00;30.67;;;16.30;85.80;;;;;;5047352;28;20528;-53
2023/10/15 12:03:09;;;;;;;390.65;48.38;;;16.30;85.70;;;;;;5031106;28;20064;-57
2023/10/15 12:05:35;;;;;;;250.02;29.88;;;16.30;85.40;;;;;;5030787;28;20032;-57
2023/10/15 12:08:01;;;;;;;272.27;35.67;;;16.30;85.90;;;;;;5029113;28;20029;-57
2023/10/15 12:10:27;;;;;;;278.38;31.25;;;16.30;85.20;;;;;;5067927;28;20052;-57
2023/10/15 12:12:52;;;;;;;287.38;36.38;;;16.30;85.10;;;;;;5068086;28;20029;-57
2023/10/15 12:15:18;;;;;;;373.20;41.78;;;16.30;84.60;;;;;;5063641;28;20024;-57
2023/10/15 12:17:44;;;;;;;264.02;32.20;;;16.40;84.20;;;;;;5056118;28;20036;-57
2023/10/15 12:20:12;;;;;;;278.98;36.17;;;16.40;84.20;;;;;;5046671;28;20035;-57
2023/10/15 12:22:38;;;;;;;230.10;28.95;;;16.40;83.70;;;;;;5049061;28;20040;-57
2023/10/15 12:25:04;;;;;;;256.55;29.02;;;16.40;83.20;;;;;;5048181;28;20292;-57
2023/10/15 12:27:29;;;;;;;237.75;30.27;;;16.40;83.10;;;;;;5070885;28;20041;-58
2023/10/15 12:29:55;;;;;;;248.60;30.17;;;16.50;82.50;;;;;;5017834;28;20035;-57
2023/10/15 12:32:21;;;;;;;209.20;26.13;;;16.50;81.90;;;;;;5047464;28;20049;-56
2023/10/15 12:34:47;;;;;;;245.23;31.02;;;16.50;81.60;;;;;;5047418;28;20036;-56
2023/10/15 12:37:15;;;;;;;238.05;29.27;;;16.50;81.60;;;;;;5063568;28;20049;-57
2023/10/15 12:39:40;;;;;;;264.35;32.50;;;16.50;81.30;;;;;;5071225;28;20021;-57
2023/10/15 12:42:08;;;;;;;275.83;32.90;;;16.50;81.00;;;;;;5064314;28;20682;-57
2023/10/15 12:44:39;;;;;;;254.10;34.58;;;16.50;81.00;;;;;;5036182;28;20055;-58
2023/10/15 12:47:04;;;;;;;257.35;31.33;;;16.50;80.80;;;;;;5065017;28;20040;-57
2023/10/15 12:49:30;;;;;;;236.05;29.98;;;16.60;80.40;;;;;;5015514;28;20040;-57
2023/10/15 12:51:58;;;;;;;245.25;32.53;;;16.50;79.90;;;;;;5074250;28;20032;-57
2023/10/15 12:54:24;;;;;;;259.48;28.83;;;16.60;79.90;;;;;;5030632;28;20029;-57
2023/10/15 12:56:50;;;;;;;242.23;30.25;;;16.50;79.90;;;;;;5047816;28;20044;-58
2023/10/15 12:59:15;;;;;;;248.57;30.45;;;16.50;79.40;;;;;;5029090;28;20031;-57
2023/10/15 13:01:42;;;;;;;228.35;27.77;;;16.60;79.30;;;;;;5045609;28;20059;-57